sensor_id;sensor_type;location;lat;lon;timestamp;P1;durP1;ratioP1;P2;durP2;ratioP2
52468;SDS011;38381;53.688;10.776;2023-07-08T00:00:32;7.50;;;4.43;;
52468;SDS011;38381;53.688;10.776;2023-07-08T00:05:32;5.13;;;4.15;;
52468;SDS011;38381;53.688;10.776;2023-07-08T00:10:32;3.80;;;3.50;;
52468;SDS011;38381;53.688;10.776;2023-07-08T00:15:33;4.70;;;4.00;;
52468;SDS011;38381;53.688;10.776;2023-07-08T00:25:43;4.03;;;3.63;;
52468;SDS011;38381;53.688;10.776;2023-07-08T00:30:46;4.43;;;3.88;;
52468;SDS011;38381;53.688;10.776;2023-07-08T00:35:47;6.45;;;4.57;;
52468;SDS011;38381;53.688;10.776;2023-07-08T00:40:51;4.53;;;3.83;;
52468;SDS011;38381;53.688;10.776;2023-07-08T00:51:21;5.07;;;4.20;;
52468;SDS011;38381;53.688;10.776;2023-07-08T00:56:33;5.80;;;4.50;;
52468;SDS011;38381;53.688;10.776;2023-07-08T01:01:40;5.88;;;4.88;;
52468;SDS011;38381;53.688;10.776;2023-07-08T01:06:44;4.75;;;4.28;;
52468;SDS011;38381;53.688;10.776;2023-07-08T01:11:53;7.45;;;4.82;;
52468;SDS011;38381;53.688;10.776;2023-07-08T01:16:56;5.10;;;4.70;;
52468;SDS011;38381;53.688;10.776;2023-07-08T01:21:58;7.18;;;4.40;;
52468;SDS011;38381;53.688;10.776;2023-07-08T01:27:07;4.90;;;4.05;;
52468;SDS011;38381;53.688;10.776;2023-07-08T01:32:14;5.25;;;4.72;;
52468;SDS011;38381;53.688;10.776;2023-07-08T01:37:18;6.20;;;5.38;;
52468;SDS011;38381;53.688;10.776;2023-07-08T01:42:19;6.22;;;4.93;;
52468;SDS011;38381;53.688;10.776;2023-07-08T01:47:20;4.03;;;3.67;;
52468;SDS011;38381;53.688;10.776;2023-07-08T01:52:22;4.95;;;4.45;;
52468;SDS011;38381;53.688;10.776;2023-07-08T01:57:23;8.80;;;4.53;;
52468;SDS011;38381;53.688;10.776;2023-07-08T02:02:24;4.40;;;4.00;;
52468;SDS011;38381;53.688;10.776;2023-07-08T02:07:25;4.95;;;4.50;;
52468;SDS011;38381;53.688;10.776;2023-07-08T02:12:25;5.83;;;5.23;;
52468;SDS011;38381;53.688;10.776;2023-07-08T02:17:26;33.43;;;24.73;;
52468;SDS011;38381;53.688;10.776;2023-07-08T02:22:28;18.92;;;13.63;;
52468;SDS011;38381;53.688;10.776;2023-07-08T02:27:29;9.43;;;6.90;;
52468;SDS011;38381;53.688;10.776;2023-07-08T02:32:29;6.40;;;5.35;;
52468;SDS011;38381;53.688;10.776;2023-07-08T02:37:30;7.40;;;5.63;;
52468;SDS011;38381;53.688;10.776;2023-07-08T02:42:30;7.45;;;6.03;;
52468;SDS011;38381;53.688;10.776;2023-07-08T02:47:31;5.17;;;4.67;;
52468;SDS011;38381;53.688;10.776;2023-07-08T02:52:31;6.95;;;4.50;;
52468;SDS011;38381;53.688;10.776;2023-07-08T02:57:32;8.37;;;4.87;;
52468;SDS011;38381;53.688;10.776;2023-07-08T03:02:32;5.70;;;5.20;;
52468;SDS011;38381;53.688;10.776;2023-07-08T03:07:32;6.18;;;5.57;;
52468;SDS011;38381;53.688;10.776;2023-07-08T03:12:33;5.15;;;4.75;;
52468;SDS011;38381;53.688;10.776;2023-07-08T03:17:33;6.30;;;5.47;;
52468;SDS011;38381;53.688;10.776;2023-07-08T03:22:34;8.18;;;4.95;;
52468;SDS011;38381;53.688;10.776;2023-07-08T03:27:34;6.38;;;4.47;;
52468;SDS011;38381;53.688;10.776;2023-07-08T03:32:35;6.60;;;4.40;;
52468;SDS011;38381;53.688;10.776;2023-07-08T03:37:35;5.73;;;4.60;;
52468;SDS011;38381;53.688;10.776;2023-07-08T03:42:35;6.00;;;5.40;;
52468;SDS011;38381;53.688;10.776;2023-07-08T03:47:36;5.87;;;5.20;;
52468;SDS011;38381;53.688;10.776;2023-07-08T03:52:36;5.93;;;5.03;;
52468;SDS011;38381;53.688;10.776;2023-07-08T03:57:36;4.10;;;3.70;;
52468;SDS011;38381;53.688;10.776;2023-07-08T04:02:38;8.30;;;4.90;;
52468;SDS011;38381;53.688;10.776;2023-07-08T04:07:39;4.63;;;4.23;;
52468;SDS011;38381;53.688;10.776;2023-07-08T04:12:39;5.72;;;5.22;;
52468;SDS011;38381;53.688;10.776;2023-07-08T04:17:46;6.28;;;5.20;;
52468;SDS011;38381;53.688;10.776;2023-07-08T04:22:48;6.93;;;5.25;;
52468;SDS011;38381;53.688;10.776;2023-07-08T04:27:48;6.05;;;5.47;;
52468;SDS011;38381;53.688;10.776;2023-07-08T04:32:49;5.67;;;5.10;;
52468;SDS011;38381;53.688;10.776;2023-07-08T04:37:51;5.97;;;4.80;;
52468;SDS011;38381;53.688;10.776;2023-07-08T04:42:52;5.55;;;5.00;;
52468;SDS011;38381;53.688;10.776;2023-07-08T04:47:53;6.22;;;5.63;;
52468;SDS011;38381;53.688;10.776;2023-07-08T04:52:53;6.85;;;4.45;;
52468;SDS011;38381;53.688;10.776;2023-07-08T04:57:53;4.30;;;3.80;;
52468;SDS011;38381;53.688;10.776;2023-07-08T05:02:54;4.23;;;3.53;;
52468;SDS011;38381;53.688;10.776;2023-07-08T05:07:54;3.83;;;3.53;;
52468;SDS011;38381;53.688;10.776;2023-07-08T05:12:55;3.92;;;3.10;;
52468;SDS011;38381;53.688;10.776;2023-07-08T05:17:56;2.85;;;2.38;;
52468;SDS011;38381;53.688;10.776;2023-07-08T05:22:56;3.55;;;3.22;;
52468;SDS011;38381;53.688;10.776;2023-07-08T05:27:57;3.43;;;2.63;;
52468;SDS011;38381;53.688;10.776;2023-07-08T05:32:57;4.22;;;2.78;;
52468;SDS011;38381;53.688;10.776;2023-07-08T05:37:57;3.70;;;3.00;;
52468;SDS011;38381;53.688;10.776;2023-07-08T05:42:58;3.17;;;2.57;;
52468;SDS011;38381;53.688;10.776;2023-07-08T05:47:58;3.00;;;2.70;;
52468;SDS011;38381;53.688;10.776;2023-07-08T05:52:58;4.83;;;2.80;;
52468;SDS011;38381;53.688;10.776;2023-07-08T05:57:59;3.27;;;2.03;;
52468;SDS011;38381;53.688;10.776;2023-07-08T06:02:59;3.22;;;2.50;;
52468;SDS011;38381;53.688;10.776;2023-07-08T06:08:00;4.40;;;2.53;;
52468;SDS011;38381;53.688;10.776;2023-07-08T06:13:00;4.22;;;2.95;;
52468;SDS011;38381;53.688;10.776;2023-07-08T06:18:01;5.50;;;3.05;;
52468;SDS011;38381;53.688;10.776;2023-07-08T06:23:02;3.57;;;2.53;;
52468;SDS011;38381;53.688;10.776;2023-07-08T06:28:03;5.40;;;3.07;;
52468;SDS011;38381;53.688;10.776;2023-07-08T06:33:04;3.93;;;2.30;;
52468;SDS011;38381;53.688;10.776;2023-07-08T06:38:05;3.25;;;2.50;;
52468;SDS011;38381;53.688;10.776;2023-07-08T06:43:06;4.87;;;2.93;;
52468;SDS011;38381;53.688;10.776;2023-07-08T06:48:06;3.00;;;2.10;;
52468;SDS011;38381;53.688;10.776;2023-07-08T06:53:07;3.37;;;2.57;;
52468;SDS011;38381;53.688;10.776;2023-07-08T06:58:08;3.33;;;2.30;;
52468;SDS011;38381;53.688;10.776;2023-07-08T07:03:08;2.40;;;2.20;;
52468;SDS011;38381;53.688;10.776;2023-07-08T07:08:09;4.67;;;2.70;;
52468;SDS011;38381;53.688;10.776;2023-07-08T07:13:09;8.20;;;3.43;;
52468;SDS011;38381;53.688;10.776;2023-07-08T07:18:10;4.97;;;2.67;;
52468;SDS011;38381;53.688;10.776;2023-07-08T07:23:10;3.23;;;2.17;;
52468;SDS011;38381;53.688;10.776;2023-07-08T07:28:11;3.50;;;2.60;;
52468;SDS011;38381;53.688;10.776;2023-07-08T07:33:11;2.97;;;2.57;;
52468;SDS011;38381;53.688;10.776;2023-07-08T07:38:13;6.17;;;2.53;;
52468;SDS011;38381;53.688;10.776;2023-07-08T07:43:14;2.55;;;2.15;;
52468;SDS011;38381;53.688;10.776;2023-07-08T07:48:15;2.97;;;2.37;;
52468;SDS011;38381;53.688;10.776;2023-07-08T07:53:15;4.23;;;2.77;;
52468;SDS011;38381;53.688;10.776;2023-07-08T07:58:16;3.77;;;2.77;;
52468;SDS011;38381;53.688;10.776;2023-07-08T08:03:16;4.63;;;2.60;;
52468;SDS011;38381;53.688;10.776;2023-07-08T08:08:17;2.77;;;2.13;;
52468;SDS011;38381;53.688;10.776;2023-07-08T08:13:19;3.55;;;2.38;;
52468;SDS011;38381;53.688;10.776;2023-07-08T08:18:19;3.10;;;2.07;;
52468;SDS011;38381;53.688;10.776;2023-07-08T08:23:20;4.60;;;2.47;;
52468;SDS011;38381;53.688;10.776;2023-07-08T08:28:21;3.20;;;2.00;;
52468;SDS011;38381;53.688;10.776;2023-07-08T08:33:21;2.83;;;2.30;;
52468;SDS011;38381;53.688;10.776;2023-07-08T08:38:22;2.80;;;2.50;;
52468;SDS011;38381;53.688;10.776;2023-07-08T08:43:23;3.23;;;2.57;;
52468;SDS011;38381;53.688;10.776;2023-07-08T08:48:32;3.85;;;2.42;;
52468;SDS011;38381;53.688;10.776;2023-07-08T08:53:41;2.47;;;2.13;;
52468;SDS011;38381;53.688;10.776;2023-07-08T08:58:52;2.73;;;2.23;;
52468;SDS011;38381;53.688;10.776;2023-07-08T09:09:17;3.30;;;2.53;;
52468;SDS011;38381;53.688;10.776;2023-07-08T09:14:25;4.30;;;2.95;;
52468;SDS011;38381;53.688;10.776;2023-07-08T09:19:32;7.03;;;2.30;;
52468;SDS011;38381;53.688;10.776;2023-07-08T09:24:54;3.35;;;2.40;;
52468;SDS011;38381;53.688;10.776;2023-07-08T09:30:01;4.25;;;2.60;;
52468;SDS011;38381;53.688;10.776;2023-07-08T09:35:03;2.37;;;2.17;;
52468;SDS011;38381;53.688;10.776;2023-07-08T09:40:16;3.50;;;2.58;;
52468;SDS011;38381;53.688;10.776;2023-07-08T09:45:23;4.40;;;2.50;;
52468;SDS011;38381;53.688;10.776;2023-07-08T09:50:26;3.78;;;2.20;;
52468;SDS011;38381;53.688;10.776;2023-07-08T09:55:28;2.88;;;2.20;;
52468;SDS011;38381;53.688;10.776;2023-07-08T10:00:33;4.07;;;2.08;;
52468;SDS011;38381;53.688;10.776;2023-07-08T10:05:40;3.55;;;2.78;;
52468;SDS011;38381;53.688;10.776;2023-07-08T10:10:42;3.35;;;2.65;;
52468;SDS011;38381;53.688;10.776;2023-07-08T10:20:59;4.70;;;2.63;;
52468;SDS011;38381;53.688;10.776;2023-07-08T10:26:28;3.03;;;2.03;;
52468;SDS011;38381;53.688;10.776;2023-07-08T10:52:26;3.25;;;2.30;;
52468;SDS011;38381;53.688;10.776;2023-07-08T11:08:21;4.55;;;2.03;;
52468;SDS011;38381;53.688;10.776;2023-07-08T11:13:28;3.33;;;2.00;;
52468;SDS011;38381;53.688;10.776;2023-07-08T11:28:46;4.78;;;2.30;;
52468;SDS011;38381;53.688;10.776;2023-07-08T11:33:50;3.03;;;2.22;;
52468;SDS011;38381;53.688;10.776;2023-07-08T11:38:53;2.97;;;2.20;;
52468;SDS011;38381;53.688;10.776;2023-07-08T11:43:56;3.08;;;2.22;;
52468;SDS011;38381;53.688;10.776;2023-07-08T11:49:02;4.30;;;2.92;;
52468;SDS011;38381;53.688;10.776;2023-07-08T11:54:27;3.03;;;2.50;;
52468;SDS011;38381;53.688;10.776;2023-07-08T11:59:32;3.95;;;1.90;;
52468;SDS011;38381;53.688;10.776;2023-07-08T12:04:51;3.10;;;2.00;;
52468;SDS011;38381;53.688;10.776;2023-07-08T12:10:00;2.90;;;2.00;;
52468;SDS011;38381;53.688;10.776;2023-07-08T12:20:24;2.95;;;2.00;;
52468;SDS011;38381;53.688;10.776;2023-07-08T12:25:31;2.60;;;1.77;;
52468;SDS011;38381;53.688;10.776;2023-07-08T12:30:34;3.80;;;2.38;;
52468;SDS011;38381;53.688;10.776;2023-07-08T12:35:35;3.60;;;2.30;;
52468;SDS011;38381;53.688;10.776;2023-07-08T12:40:35;6.73;;;2.37;;
52468;SDS011;38381;53.688;10.776;2023-07-08T12:45:36;3.87;;;2.60;;
52468;SDS011;38381;53.688;10.776;2023-07-08T12:50:37;3.78;;;2.00;;
52468;SDS011;38381;53.688;10.776;2023-07-08T12:55:41;4.67;;;2.47;;
52468;SDS011;38381;53.688;10.776;2023-07-08T13:00:43;2.80;;;2.10;;
52468;SDS011;38381;53.688;10.776;2023-07-08T13:05:45;4.40;;;2.30;;
52468;SDS011;38381;53.688;10.776;2023-07-08T13:10:48;4.05;;;2.30;;
52468;SDS011;38381;53.688;10.776;2023-07-08T13:15:50;3.03;;;2.40;;
52468;SDS011;38381;53.688;10.776;2023-07-08T13:20:52;3.85;;;2.33;;
52468;SDS011;38381;53.688;10.776;2023-07-08T13:25:55;2.10;;;1.73;;
52468;SDS011;38381;53.688;10.776;2023-07-08T13:30:59;4.72;;;2.60;;
52468;SDS011;38381;53.688;10.776;2023-07-08T13:36:02;2.75;;;2.05;;
52468;SDS011;38381;53.688;10.776;2023-07-08T13:41:05;5.25;;;3.35;;
52468;SDS011;38381;53.688;10.776;2023-07-08T13:46:24;2.58;;;2.08;;
52468;SDS011;38381;53.688;10.776;2023-07-08T13:51:31;2.95;;;2.10;;
52468;SDS011;38381;53.688;10.776;2023-07-08T13:56:33;2.10;;;1.83;;
52468;SDS011;38381;53.688;10.776;2023-07-08T14:01:37;4.85;;;2.40;;
52468;SDS011;38381;53.688;10.776;2023-07-08T14:06:39;2.78;;;2.10;;
52468;SDS011;38381;53.688;10.776;2023-07-08T14:11:40;2.47;;;2.00;;
52468;SDS011;38381;53.688;10.776;2023-07-08T14:16:45;2.60;;;2.20;;
52468;SDS011;38381;53.688;10.776;2023-07-08T14:21:47;2.65;;;1.80;;
52468;SDS011;38381;53.688;10.776;2023-07-08T14:26:53;4.63;;;2.50;;
52468;SDS011;38381;53.688;10.776;2023-07-08T14:36:54;3.28;;;1.90;;
52468;SDS011;38381;53.688;10.776;2023-07-08T14:41:54;2.97;;;2.03;;
52468;SDS011;38381;53.688;10.776;2023-07-08T14:46:55;2.50;;;1.77;;
52468;SDS011;38381;53.688;10.776;2023-07-08T14:51:56;3.90;;;2.78;;
52468;SDS011;38381;53.688;10.776;2023-07-08T14:56:57;3.93;;;2.53;;
52468;SDS011;38381;53.688;10.776;2023-07-08T15:06:59;4.40;;;1.95;;
52468;SDS011;38381;53.688;10.776;2023-07-08T15:12:00;5.10;;;2.22;;
52468;SDS011;38381;53.688;10.776;2023-07-08T15:17:00;3.60;;;2.10;;
52468;SDS011;38381;53.688;10.776;2023-07-08T15:22:01;2.57;;;2.17;;
52468;SDS011;38381;53.688;10.776;2023-07-08T15:27:02;4.13;;;2.17;;
52468;SDS011;38381;53.688;10.776;2023-07-08T15:32:04;3.88;;;2.28;;
52468;SDS011;38381;53.688;10.776;2023-07-08T15:37:12;3.30;;;2.00;;
52468;SDS011;38381;53.688;10.776;2023-07-08T15:42:12;21.77;;;18.60;;
52468;SDS011;38381;53.688;10.776;2023-07-08T15:47:13;23.25;;;20.95;;
52468;SDS011;38381;53.688;10.776;2023-07-08T15:52:13;15.88;;;14.25;;
52468;SDS011;38381;53.688;10.776;2023-07-08T15:57:14;11.80;;;9.90;;
52468;SDS011;38381;53.688;10.776;2023-07-08T16:02:15;7.00;;;6.30;;
52468;SDS011;38381;53.688;10.776;2023-07-08T16:07:29;9.98;;;8.98;;
52468;SDS011;38381;53.688;10.776;2023-07-08T16:12:29;16.10;;;13.53;;
52468;SDS011;38381;53.688;10.776;2023-07-08T16:17:30;11.80;;;6.63;;
52468;SDS011;38381;53.688;10.776;2023-07-08T16:22:36;4.30;;;3.83;;
52468;SDS011;38381;53.688;10.776;2023-07-08T16:27:36;6.63;;;5.00;;
52468;SDS011;38381;53.688;10.776;2023-07-08T16:32:37;4.30;;;2.73;;
52468;SDS011;38381;53.688;10.776;2023-07-08T16:37:37;2.77;;;2.47;;
52468;SDS011;38381;53.688;10.776;2023-07-08T16:42:38;4.13;;;2.33;;
52468;SDS011;38381;53.688;10.776;2023-07-08T16:47:39;4.85;;;1.98;;
52468;SDS011;38381;53.688;10.776;2023-07-08T16:52:39;2.93;;;1.83;;
52468;SDS011;38381;53.688;10.776;2023-07-08T16:57:40;2.57;;;1.97;;
52468;SDS011;38381;53.688;10.776;2023-07-08T17:02:41;3.40;;;1.90;;
52468;SDS011;38381;53.688;10.776;2023-07-08T17:07:41;3.67;;;2.10;;
52468;SDS011;38381;53.688;10.776;2023-07-08T17:12:42;3.38;;;2.00;;
52468;SDS011;38381;53.688;10.776;2023-07-08T17:17:45;2.53;;;2.17;;
52468;SDS011;38381;53.688;10.776;2023-07-08T17:22:49;5.40;;;1.90;;
52468;SDS011;38381;53.688;10.776;2023-07-08T17:27:51;2.60;;;1.70;;
52468;SDS011;38381;53.688;10.776;2023-07-08T17:32:53;3.25;;;2.30;;
52468;SDS011;38381;53.688;10.776;2023-07-08T17:42:57;3.07;;;2.23;;
52468;SDS011;38381;53.688;10.776;2023-07-08T17:47:57;5.00;;;1.87;;
52468;SDS011;38381;53.688;10.776;2023-07-08T17:52:58;10.63;;;2.67;;
52468;SDS011;38381;53.688;10.776;2023-07-08T17:57:58;4.93;;;2.00;;
52468;SDS011;38381;53.688;10.776;2023-07-08T18:02:59;5.43;;;2.50;;
52468;SDS011;38381;53.688;10.776;2023-07-08T18:07:59;4.27;;;2.27;;
52468;SDS011;38381;53.688;10.776;2023-07-08T18:12:59;3.73;;;2.20;;
52468;SDS011;38381;53.688;10.776;2023-07-08T18:18:04;2.65;;;2.15;;
52468;SDS011;38381;53.688;10.776;2023-07-08T18:23:06;4.43;;;2.30;;
52468;SDS011;38381;53.688;10.776;2023-07-08T18:28:15;6.22;;;2.55;;
52468;SDS011;38381;53.688;10.776;2023-07-08T18:33:16;3.00;;;1.83;;
52468;SDS011;38381;53.688;10.776;2023-07-08T18:38:17;3.42;;;2.28;;
52468;SDS011;38381;53.688;10.776;2023-07-08T18:48:18;6.90;;;2.33;;
52468;SDS011;38381;53.688;10.776;2023-07-08T18:53:20;3.17;;;2.47;;
52468;SDS011;38381;53.688;10.776;2023-07-08T18:58:21;4.67;;;2.70;;
52468;SDS011;38381;53.688;10.776;2023-07-08T19:03:25;7.13;;;2.60;;
52468;SDS011;38381;53.688;10.776;2023-07-08T19:08:28;4.05;;;2.22;;
52468;SDS011;38381;53.688;10.776;2023-07-08T19:13:28;5.67;;;3.03;;
52468;SDS011;38381;53.688;10.776;2023-07-08T19:18:29;4.83;;;2.63;;
52468;SDS011;38381;53.688;10.776;2023-07-08T19:23:29;4.63;;;2.40;;
52468;SDS011;38381;53.688;10.776;2023-07-08T19:28:30;5.97;;;2.77;;
52468;SDS011;38381;53.688;10.776;2023-07-08T19:33:30;5.60;;;2.83;;
52468;SDS011;38381;53.688;10.776;2023-07-08T19:38:32;4.07;;;2.60;;
52468;SDS011;38381;53.688;10.776;2023-07-08T19:43:33;5.77;;;3.20;;
52468;SDS011;38381;53.688;10.776;2023-07-08T19:48:33;3.40;;;2.73;;
52468;SDS011;38381;53.688;10.776;2023-07-08T19:53:33;3.80;;;2.57;;
52468;SDS011;38381;53.688;10.776;2023-07-08T19:58:34;6.67;;;2.90;;
52468;SDS011;38381;53.688;10.776;2023-07-08T20:03:34;2.73;;;2.27;;
52468;SDS011;38381;53.688;10.776;2023-07-08T20:08:35;6.53;;;3.90;;
52468;SDS011;38381;53.688;10.776;2023-07-08T20:13:36;4.07;;;3.00;;
52468;SDS011;38381;53.688;10.776;2023-07-08T20:18:37;4.25;;;2.35;;
52468;SDS011;38381;53.688;10.776;2023-07-08T20:23:38;7.53;;;2.70;;
52468;SDS011;38381;53.688;10.776;2023-07-08T20:28:39;5.22;;;2.65;;
52468;SDS011;38381;53.688;10.776;2023-07-08T20:33:39;6.28;;;2.92;;
52468;SDS011;38381;53.688;10.776;2023-07-08T20:38:40;4.07;;;3.03;;
52468;SDS011;38381;53.688;10.776;2023-07-08T20:43:40;3.67;;;2.40;;
52468;SDS011;38381;53.688;10.776;2023-07-08T20:48:41;5.32;;;2.42;;
52468;SDS011;38381;53.688;10.776;2023-07-08T20:53:41;3.80;;;2.70;;
52468;SDS011;38381;53.688;10.776;2023-07-08T20:58:42;3.28;;;2.33;;
52468;SDS011;38381;53.688;10.776;2023-07-08T21:03:42;6.85;;;2.40;;
52468;SDS011;38381;53.688;10.776;2023-07-08T21:08:44;2.55;;;1.90;;
52468;SDS011;38381;53.688;10.776;2023-07-08T21:13:44;5.03;;;2.47;;
52468;SDS011;38381;53.688;10.776;2023-07-08T21:18:45;3.10;;;2.30;;
52468;SDS011;38381;53.688;10.776;2023-07-08T21:23:46;5.55;;;2.00;;
52468;SDS011;38381;53.688;10.776;2023-07-08T21:28:47;2.92;;;2.03;;
52468;SDS011;38381;53.688;10.776;2023-07-08T21:33:49;3.83;;;2.17;;
52468;SDS011;38381;53.688;10.776;2023-07-08T21:38:50;2.95;;;2.00;;
52468;SDS011;38381;53.688;10.776;2023-07-08T21:43:52;4.63;;;2.33;;
52468;SDS011;38381;53.688;10.776;2023-07-08T21:48:52;8.93;;;2.42;;
52468;SDS011;38381;53.688;10.776;2023-07-08T21:53:53;3.33;;;1.90;;
52468;SDS011;38381;53.688;10.776;2023-07-08T21:58:53;2.90;;;1.80;;
52468;SDS011;38381;53.688;10.776;2023-07-08T22:03:55;3.05;;;2.42;;
52468;SDS011;38381;53.688;10.776;2023-07-08T22:08:56;4.03;;;2.30;;
52468;SDS011;38381;53.688;10.776;2023-07-08T22:13:56;3.40;;;2.33;;
52468;SDS011;38381;53.688;10.776;2023-07-08T22:18:57;2.65;;;2.17;;
52468;SDS011;38381;53.688;10.776;2023-07-08T22:23:58;4.65;;;2.58;;
52468;SDS011;38381;53.688;10.776;2023-07-08T22:28:59;4.30;;;3.00;;
52468;SDS011;38381;53.688;10.776;2023-07-08T22:34:00;2.77;;;2.20;;
52468;SDS011;38381;53.688;10.776;2023-07-08T22:39:03;6.57;;;2.58;;
52468;SDS011;38381;53.688;10.776;2023-07-08T22:44:05;3.10;;;2.25;;
52468;SDS011;38381;53.688;10.776;2023-07-08T22:49:05;3.57;;;2.50;;
52468;SDS011;38381;53.688;10.776;2023-07-08T22:54:06;2.63;;;1.92;;
52468;SDS011;38381;53.688;10.776;2023-07-08T22:59:11;4.03;;;2.42;;
52468;SDS011;38381;53.688;10.776;2023-07-08T23:04:12;2.47;;;2.10;;
52468;SDS011;38381;53.688;10.776;2023-07-08T23:09:13;3.67;;;2.28;;
52468;SDS011;38381;53.688;10.776;2023-07-08T23:19:15;5.97;;;2.73;;
52468;SDS011;38381;53.688;10.776;2023-07-08T23:24:15;3.08;;;2.38;;
52468;SDS011;38381;53.688;10.776;2023-07-08T23:29:17;3.37;;;2.73;;
52468;SDS011;38381;53.688;10.776;2023-07-08T23:34:19;3.80;;;2.13;;
52468;SDS011;38381;53.688;10.776;2023-07-08T23:39:20;3.80;;;2.87;;
52468;SDS011;38381;53.688;10.776;2023-07-08T23:44:24;2.85;;;2.53;;
52468;SDS011;38381;53.688;10.776;2023-07-08T23:49:27;3.47;;;2.28;;
52468;SDS011;38381;53.688;10.776;2023-07-08T23:54:32;5.43;;;3.63;;
52468;SDS011;38381;53.688;10.776;2023-07-08T23:59:36;4.50;;;3.50;;
